createdAt,value
2018-08-24T00:00:37.812Z,19.53
2018-08-24T00:03:07.100Z,24.83
2018-08-24T00:05:36.633Z,22.90
2018-08-24T00:08:06.125Z,21.00
2018-08-24T00:10:35.378Z,23.43
2018-08-24T00:13:06.115Z,22.43
2018-08-24T00:15:35.627Z,23.73
2018-08-24T00:18:04.847Z,18.70
2018-08-24T00:20:34.340Z,18.70
2018-08-24T00:23:03.837Z,20.17
2018-08-24T00:25:39.968Z,19.13
2018-08-24T00:28:09.557Z,21.33
2018-08-24T00:30:39.388Z,20.33
2018-08-24T00:33:08.583Z,20.17
2018-08-24T00:35:37.680Z,18.00
2018-08-24T00:38:07.280Z,21.90
2018-08-24T00:41:33.544Z,18.73
2018-08-24T00:44:03.656Z,20.33
2018-08-24T00:46:34.249Z,19.97
2018-08-24T00:49:03.851Z,19.73
2018-08-24T00:51:35.148Z,20.77
2018-08-24T00:54:04.550Z,18.67
2018-08-24T00:57:02.361Z,23.97
2018-08-24T00:59:33.704Z,22.17
2018-08-24T01:02:03.884Z,20.57
2018-08-24T01:04:35.220Z,20.20
2018-08-24T01:07:09.810Z,22.73
2018-08-24T01:09:40.193Z,22.80
2018-08-24T01:12:36.670Z,19.87
2018-08-24T01:18:46.444Z,19.37
2018-08-24T01:21:15.759Z,19.60
2018-08-24T01:23:45.082Z,19.27
2018-08-24T01:26:18.355Z,19.47
2018-08-24T01:28:47.625Z,20.87
2018-08-24T01:31:16.275Z,18.40
2018-08-24T01:33:45.234Z,21.53
2018-08-24T01:36:14.389Z,19.10
2018-08-24T01:39:02.156Z,22.20
2018-08-24T01:41:33.853Z,22.20
2018-08-24T01:44:15.655Z,22.87
2018-08-24T01:46:45.184Z,23.53
2018-08-24T01:49:14.343Z,21.57
2018-08-24T01:51:43.963Z,21.40
2018-08-24T01:54:13.078Z,20.50
2018-08-24T01:56:42.261Z,20.07
2018-08-24T01:59:12.238Z,21.37
2018-08-24T02:01:41.853Z,22.33
2018-08-24T02:04:11.181Z,25.43
2018-08-24T02:07:06.096Z,20.83
2018-08-24T02:09:35.438Z,23.07
2018-08-24T02:12:05.081Z,22.33
2018-08-24T02:14:39.416Z,22.73
2018-08-24T02:17:12.941Z,25.43
2018-08-24T02:19:47.283Z,26.50
2018-08-24T02:22:16.642Z,25.53
2018-08-24T02:24:45.698Z,26.53
2018-08-24T02:27:14.737Z,28.17
2018-08-24T02:29:43.957Z,26.53
2018-08-24T02:32:13.032Z,27.47
2018-08-24T02:34:42.156Z,34.43
2018-08-24T02:37:11.656Z,32.67
2018-08-24T02:39:40.841Z,30.63
2018-08-24T02:42:10.173Z,31.80
2018-08-24T02:44:39.186Z,33.93
2018-08-24T02:47:21.123Z,47.13
2018-08-24T02:49:49.698Z,41.17
2018-08-24T02:52:18.236Z,38.80
2018-08-24T02:54:46.889Z,38.37
2018-08-24T02:57:17.315Z,42.70
2018-08-24T02:59:46.700Z,41.33
2018-08-24T03:02:15.865Z,42.40
2018-08-24T03:04:44.843Z,42.80
2018-08-24T03:07:42.799Z,46.27
2018-08-24T03:10:11.958Z,44.33
2018-08-24T03:12:41.257Z,43.37
2018-08-24T03:15:10.474Z,52.23
2018-08-24T03:17:45.251Z,55.73
2018-08-24T03:20:14.342Z,55.87
2018-08-24T03:22:43.490Z,55.47
2018-08-24T03:25:12.804Z,54.50
2018-08-24T03:27:41.359Z,52.80
2018-08-24T03:30:10.411Z,53.10
2018-08-24T03:32:40.144Z,52.07
2018-08-24T03:35:09.455Z,49.50
2018-08-24T03:37:38.902Z,51.90
2018-08-24T03:40:08.071Z,55.40
2018-08-24T03:42:37.422Z,59.77
2018-08-24T03:45:08.983Z,53.13
2018-08-24T03:48:15.093Z,50.20
2018-08-24T03:50:44.511Z,52.67
2018-08-24T03:53:13.961Z,63.03
2018-08-24T03:55:43.940Z,49.90
2018-08-24T03:58:13.692Z,55.50
2018-08-24T04:00:42.838Z,48.50
2018-08-24T04:03:12.209Z,53.17
2018-08-24T04:05:45.300Z,47.83
2018-08-24T04:08:14.784Z,50.47
2018-08-24T04:10:44.041Z,43.93
2018-08-24T04:13:32.718Z,40.83
2018-08-24T04:16:04.871Z,46.10
2018-08-24T04:18:35.078Z,37.70
2018-08-24T04:21:05.151Z,37.97
2018-08-24T04:23:34.565Z,34.53
2018-08-24T04:26:09.059Z,35.80
2018-08-24T04:28:38.403Z,23.33
2018-08-24T04:31:07.693Z,25.27
2018-08-24T04:33:36.946Z,31.03
2018-08-24T04:36:06.219Z,26.07
2018-08-24T04:49:50.499Z,25.87
2018-08-24T04:59:11.122Z,23.10
2018-08-24T05:01:40.541Z,26.80
2018-08-24T05:04:10.457Z,26.73
2018-08-24T05:06:39.637Z,29.10
2018-08-24T05:09:12.396Z,26.37
2018-08-24T05:11:41.715Z,23.63
2018-08-24T05:14:12.590Z,24.03
2018-08-24T05:16:41.814Z,29.50
2018-08-24T05:19:11.118Z,30.17
2018-08-24T05:21:40.269Z,27.33
2018-08-24T05:24:09.569Z,26.80
2018-08-24T05:26:42.727Z,26.17
2018-08-24T05:29:11.977Z,24.20
2018-08-24T05:31:41.351Z,29.13
2018-08-24T05:34:10.599Z,28.37
2018-08-24T05:36:42.982Z,27.97
2018-08-24T05:39:12.400Z,24.70
2018-08-24T05:41:41.764Z,27.37
2018-08-24T05:44:11.038Z,27.10
2018-08-24T05:46:42.514Z,29.13
2018-08-24T05:49:11.632Z,24.67
2018-08-24T05:51:41.120Z,28.33
2018-08-24T05:54:10.511Z,26.07
2018-08-24T05:56:39.749Z,28.80
2018-08-24T05:59:09.096Z,25.13
2018-08-24T06:01:38.402Z,27.80
2018-08-24T06:04:07.604Z,26.70
2018-08-24T06:06:36.862Z,26.63
2018-08-24T06:09:15.193Z,26.77
2018-08-24T06:11:44.131Z,30.03
2018-08-24T06:14:14.198Z,29.70
2018-08-24T06:16:50.503Z,28.63
2018-08-24T06:19:19.819Z,27.87
2018-08-24T06:21:48.458Z,25.97
2018-08-24T06:24:17.744Z,24.27
2018-08-24T06:26:47.946Z,22.40
2018-08-24T06:29:16.894Z,24.93
2018-08-24T06:31:46.164Z,23.33
2018-08-24T06:34:16.213Z,24.40
2018-08-24T06:36:46.739Z,22.40
2018-08-24T06:39:16.059Z,23.97
2018-08-24T06:41:45.514Z,24.50
2018-08-24T06:44:14.661Z,21.93
2018-08-24T06:46:44.416Z,23.07
2018-08-24T06:49:13.854Z,21.60
2018-08-24T06:51:43.273Z,25.40
2018-08-24T06:54:12.780Z,23.33
2018-08-24T06:56:42.361Z,21.60
2018-08-24T06:59:11.975Z,24.87
2018-08-24T07:01:41.899Z,25.10
2018-08-24T07:04:11.416Z,23.67
2018-08-24T07:06:40.897Z,25.33
2018-08-24T07:09:10.820Z,24.30
2018-08-24T07:11:40.124Z,21.53
2018-08-24T07:14:12.097Z,21.73
2018-08-24T07:16:41.856Z,19.20
2018-08-24T07:19:11.109Z,17.13
2018-08-24T07:21:40.690Z,20.47
2018-08-24T07:24:10.715Z,15.43
2018-08-24T07:26:40.164Z,15.70
2018-08-24T07:30:06.318Z,16.77
2018-08-24T07:32:37.997Z,16.10
2018-08-24T07:35:20.374Z,19.90
2018-08-24T07:37:49.042Z,20.10
2018-08-24T07:40:17.992Z,17.80
2018-08-24T07:42:47.130Z,18.17
2018-08-24T07:45:16.203Z,17.27
2018-08-24T07:47:45.874Z,14.00
2018-08-24T07:50:15.249Z,23.17
2018-08-24T07:52:44.506Z,20.27
2018-08-24T07:55:13.931Z,18.00
2018-08-24T07:57:43.661Z,17.33
2018-08-24T08:00:13.307Z,18.83
2018-08-24T08:02:45.945Z,16.43
2018-08-24T08:05:16.185Z,20.67
2018-08-24T08:07:45.705Z,27.93
2018-08-24T08:11:47.287Z,17.40
2018-08-24T08:14:16.591Z,19.50
2018-08-24T08:20:12.325Z,16.77
2018-08-24T08:22:41.758Z,13.30
2018-08-24T08:25:11.491Z,13.93
2018-08-24T08:30:36.202Z,15.20
2018-08-24T08:36:35.973Z,15.17
2018-08-24T08:42:07.751Z,13.67
2018-08-24T08:44:37.392Z,12.60
2018-08-24T08:47:06.825Z,12.13
2018-08-24T08:53:17.637Z,17.30
2018-08-24T08:55:47.608Z,11.50
2018-08-24T08:58:35.088Z,10.80
2018-08-24T09:01:18.936Z,11.15
2018-08-24T09:03:47.948Z,10.50
2018-08-24T09:06:18.672Z,9.93
2018-08-24T09:08:48.273Z,10.90
2018-08-24T09:11:18.837Z,7.22
2018-08-24T09:13:47.982Z,11.57
2018-08-24T09:16:18.163Z,8.68
2018-08-24T09:18:52.653Z,8.00
2018-08-24T09:21:30.636Z,8.75
2018-08-24T09:24:10.528Z,7.95
2018-08-24T09:26:46.335Z,7.70
2018-08-24T09:29:20.628Z,6.40
2018-08-24T09:31:49.369Z,8.55
2018-08-24T09:34:18.468Z,7.42
2018-08-24T09:36:47.696Z,7.90
2018-08-24T09:39:17.157Z,7.53
2018-08-24T09:41:45.821Z,7.72
2018-08-24T09:44:15.372Z,10.15
2018-08-24T09:46:52.015Z,7.55
2018-08-24T09:49:33.239Z,7.53
2018-08-24T09:52:10.422Z,11.68
2018-08-24T09:54:40.179Z,8.68
2018-08-24T09:57:09.696Z,10.28
2018-08-24T09:59:41.058Z,7.73
2018-08-24T10:02:15.470Z,11.67
2018-08-24T10:04:49.901Z,11.70
2018-08-24T10:07:31.587Z,12.27
2018-08-24T10:10:11.440Z,11.43
2018-08-24T10:13:12.290Z,13.60
2018-08-24T10:15:51.814Z,12.90
2018-08-24T10:22:20.531Z,9.90
2018-08-24T10:25:05.445Z,9.33
2018-08-24T10:27:40.853Z,7.17
2018-08-24T10:50:06.376Z,2.37
2018-08-24T10:52:41.139Z,2.40
2018-08-24T10:55:11.399Z,2.97
2018-08-24T10:58:15.473Z,5.47
2018-08-24T11:00:44.351Z,5.27
2018-08-24T11:03:12.989Z,5.20
2018-08-24T11:05:41.651Z,3.17
2018-08-24T11:08:14.837Z,3.63
2018-08-24T11:10:43.477Z,2.80
2018-08-24T11:13:18.050Z,2.77
2018-08-24T11:16:05.472Z,3.73
2018-08-24T11:18:42.029Z,4.20
2018-08-24T11:21:11.660Z,4.20
2018-08-24T11:23:41.547Z,5.77
2018-08-24T11:26:11.585Z,4.93
2018-08-24T11:28:41.200Z,4.67
2018-08-24T11:31:11.269Z,5.37
2018-08-24T11:33:42.017Z,5.60
2018-08-24T11:36:11.615Z,5.37
2018-08-24T11:39:31.553Z,6.53
2018-08-24T11:42:11.330Z,5.13
2018-08-24T11:44:41.635Z,4.70
2018-08-24T11:50:09.378Z,7.77
2018-08-24T11:52:40.849Z,5.13
2018-08-24T12:02:34.277Z,8.70
2018-08-24T12:05:04.297Z,5.97
2018-08-24T12:14:38.069Z,6.73
2018-08-24T12:20:41.680Z,8.70
2018-08-24T12:26:58.920Z,8.17
2018-08-24T12:29:35.420Z,7.77
2018-08-24T12:32:09.674Z,7.63
2018-08-24T12:47:43.626Z,6.77
2018-08-24T13:02:40.001Z,6.90
2018-08-24T13:09:12.919Z,6.63
2018-08-24T13:11:42.350Z,7.70
2018-08-24T13:17:40.787Z,7.50
2018-08-24T13:27:12.625Z,7.07
2018-08-24T14:11:40.496Z,7.30
2018-08-24T14:14:09.725Z,7.07
2018-08-24T14:16:40.268Z,7.30
2018-08-24T14:19:43.728Z,8.40
2018-08-24T14:29:36.266Z,9.17
2018-08-24T14:39:25.239Z,11.27
2018-08-24T14:42:09.100Z,7.77
2018-08-24T15:04:56.611Z,7.57
2018-08-24T15:07:28.220Z,10.13
2018-08-24T15:09:57.330Z,8.30
2018-08-24T15:12:27.308Z,7.30
2018-08-24T15:14:57.273Z,9.33
2018-08-24T15:17:28.020Z,6.93
2018-08-24T15:19:57.428Z,9.00
2018-08-24T15:22:27.208Z,10.77
2018-08-24T15:24:57.518Z,8.53
2018-08-24T15:27:27.585Z,9.07
2018-08-24T15:29:57.368Z,9.37
2018-08-24T15:32:27.795Z,11.80
2018-08-24T15:34:57.711Z,7.47
2018-08-24T15:37:27.791Z,8.43
2018-08-24T15:39:57.786Z,9.20
2018-08-24T15:42:27.439Z,13.30
2018-08-24T15:44:57.200Z,7.57
2018-08-24T15:47:33.841Z,7.70
2018-08-24T15:50:02.781Z,11.43
2018-08-24T15:52:32.048Z,8.47
2018-08-24T15:55:01.490Z,8.67
2018-08-24T15:57:30.966Z,7.90
2018-08-24T16:00:00.723Z,10.10
2018-08-24T16:02:30.396Z,9.37
2018-08-24T16:05:00.086Z,10.13
2018-08-24T16:07:31.095Z,9.50
2018-08-24T16:10:00.546Z,8.13
2018-08-24T16:12:30.718Z,6.70
2018-08-24T16:15:00.545Z,8.77
2018-08-24T16:17:30.387Z,8.37
2018-08-24T16:19:59.569Z,7.63
2018-08-24T16:22:28.980Z,7.57
2018-08-24T16:24:59.465Z,6.73
2018-08-24T16:27:29.430Z,6.27
2018-08-24T16:29:58.915Z,8.77
2018-08-24T16:32:28.573Z,7.23
2018-08-24T16:34:58.251Z,9.27
2018-08-24T16:37:28.163Z,9.50
2018-08-24T16:39:57.367Z,5.33
2018-08-24T16:42:41.661Z,7.23
2018-08-24T16:45:10.575Z,5.13
2018-08-24T16:47:39.803Z,4.63
2018-08-24T16:50:09.069Z,3.43
2018-08-24T16:52:38.372Z,4.57
2018-08-24T16:55:08.606Z,5.13
2018-08-24T16:57:39.851Z,5.93
2018-08-24T17:00:09.584Z,4.37
2018-08-24T17:02:38.471Z,2.87
2018-08-24T17:05:08.131Z,2.63
2018-08-24T17:07:39.169Z,4.30
2018-08-24T17:10:08.988Z,5.60
2018-08-24T17:12:38.514Z,2.77
2018-08-24T17:15:09.526Z,4.03
2018-08-24T17:17:39.083Z,5.93
2018-08-24T17:20:08.444Z,6.37
2018-08-24T17:22:41.085Z,4.33
2018-08-24T17:25:10.231Z,3.93
2018-08-24T17:27:39.869Z,2.90
2018-08-24T17:30:09.572Z,2.67
2018-08-24T17:32:39.322Z,5.80
2018-08-24T17:35:08.627Z,2.77
2018-08-24T17:37:38.104Z,6.33
2018-08-24T17:40:07.501Z,3.63
2018-08-24T17:42:37.226Z,3.63
2018-08-24T17:45:07.844Z,4.10
2018-08-24T17:47:37.149Z,4.63
2018-08-24T17:50:07.264Z,2.93
2018-08-24T17:52:36.928Z,3.20
2018-08-24T17:55:06.599Z,4.10
2018-08-24T17:57:37.182Z,4.67
2018-08-24T18:00:07.365Z,3.33
2018-08-24T18:02:37.189Z,3.80
2018-08-24T18:05:07.594Z,3.43
2018-08-24T18:07:37.015Z,2.73
2018-08-24T18:10:06.482Z,5.07
2018-08-24T18:12:35.082Z,5.90
2018-08-24T18:15:04.757Z,3.07
2018-08-24T18:17:33.380Z,4.43
2018-08-24T18:20:06.761Z,4.20
2018-08-24T18:22:35.937Z,4.93
2018-08-24T18:25:05.411Z,5.70
2018-08-24T18:27:36.533Z,2.60
2018-08-24T18:30:05.627Z,4.30
2018-08-24T18:32:34.670Z,3.27
2018-08-24T18:35:04.231Z,3.67
2018-08-24T18:37:34.551Z,4.57
2018-08-24T18:40:04.243Z,6.93
2018-08-24T18:42:33.684Z,3.00
2018-08-24T18:45:03.246Z,5.73
2018-08-24T18:47:32.563Z,5.83
2018-08-24T18:50:02.364Z,6.80
2018-08-24T18:52:31.897Z,4.20
2018-08-24T18:55:00.841Z,3.17
2018-08-24T18:57:30.528Z,5.13
2018-08-24T19:00:01.396Z,3.30
2018-08-24T19:02:32.587Z,7.30
2018-08-24T19:05:01.221Z,3.93
2018-08-24T19:07:31.067Z,5.93
2018-08-24T19:10:00.360Z,5.10
2018-08-24T19:12:30.965Z,4.07
2018-08-24T19:15:00.307Z,6.13
2018-08-24T19:17:35.832Z,3.50
2018-08-24T19:20:10.148Z,5.00
2018-08-24T19:22:43.142Z,5.73
2018-08-24T19:25:11.795Z,4.13
2018-08-24T19:27:46.095Z,4.30
2018-08-24T19:30:22.904Z,4.10
2018-08-24T19:32:55.570Z,3.23
2018-08-24T19:35:26.319Z,6.60
2018-08-24T19:37:56.876Z,3.37
2018-08-24T19:40:32.565Z,3.77
2018-08-24T19:43:01.992Z,5.77
2018-08-24T19:45:31.784Z,5.73
2018-08-24T19:48:06.215Z,5.73
2018-08-24T19:50:35.248Z,4.73
2018-08-24T19:53:04.528Z,4.37
2018-08-24T19:55:34.082Z,4.03
2018-08-24T19:58:08.687Z,5.40
2018-08-24T20:00:37.727Z,3.60
2018-08-24T20:03:06.926Z,5.27
2018-08-24T20:05:36.627Z,3.83
2018-08-24T20:08:11.308Z,3.43
2018-08-24T20:10:39.977Z,5.50
2018-08-24T20:13:08.599Z,4.80
2018-08-24T20:15:42.599Z,6.00
2018-08-24T20:18:11.253Z,5.67
2018-08-24T20:20:39.947Z,4.53
2018-08-24T20:23:08.864Z,7.13
2018-08-24T20:25:38.725Z,8.63
2018-08-24T20:28:07.835Z,5.67
2018-08-24T20:30:36.737Z,8.20
2018-08-24T20:33:06.621Z,7.17
2018-08-24T20:35:35.667Z,6.77
2018-08-24T20:38:06.621Z,7.30
2018-08-24T20:40:35.798Z,4.37
2018-08-24T20:43:05.119Z,5.47
2018-08-24T20:45:35.621Z,4.03
2018-08-24T20:48:05.499Z,7.87
2018-08-24T20:50:35.298Z,4.33
2018-08-24T20:53:05.217Z,6.37
2018-08-24T20:55:34.889Z,5.07
2018-08-24T20:58:04.223Z,4.60
2018-08-24T21:00:33.889Z,4.10
2018-08-24T21:03:05.796Z,3.77
2018-08-24T21:05:35.055Z,4.60
2018-08-24T21:08:05.046Z,3.60
2018-08-24T21:10:35.238Z,4.57
2018-08-24T21:13:05.142Z,4.30
2018-08-24T21:15:37.343Z,5.23
2018-08-24T21:18:07.416Z,7.13
2018-08-24T21:20:40.320Z,4.33
2018-08-24T21:23:09.392Z,7.17
2018-08-24T21:25:38.775Z,6.80
2018-08-24T21:28:08.038Z,3.40
2018-08-24T21:30:37.156Z,5.10
2018-08-24T21:33:07.341Z,5.10
2018-08-24T21:35:37.646Z,6.63
2018-08-24T21:38:07.816Z,6.00
2018-08-24T21:40:37.261Z,8.27
2018-08-24T21:43:07.410Z,8.33
2018-08-24T21:45:36.939Z,7.53
2018-08-24T21:48:06.060Z,7.63
2018-08-24T21:50:35.456Z,7.90
2018-08-24T21:53:04.592Z,9.97
2018-08-24T21:55:34.217Z,11.47
2018-08-24T21:58:03.761Z,9.20
2018-08-24T22:00:37.148Z,8.60
2018-08-24T22:03:06.495Z,8.80
2018-08-24T22:05:35.964Z,7.93
2018-08-24T22:08:05.822Z,5.67
2018-08-24T22:10:35.705Z,6.40
2018-08-24T22:13:05.189Z,4.67
2018-08-24T22:15:34.756Z,5.73
2018-08-24T22:18:04.826Z,5.87
2018-08-24T22:20:34.375Z,6.87
2018-08-24T22:23:04.881Z,6.27
2018-08-24T22:25:34.205Z,5.70
2018-08-24T22:28:04.350Z,6.70
2018-08-24T22:30:33.827Z,4.43
2018-08-24T22:33:03.018Z,5.57
2018-08-24T22:35:32.676Z,5.00
2018-08-24T22:38:01.929Z,6.10
2018-08-24T22:40:31.236Z,5.10
2018-08-24T22:43:00.746Z,4.63
2018-08-24T22:45:32.993Z,8.70
2018-08-24T22:48:02.020Z,7.10
2018-08-24T22:50:31.395Z,4.93
2018-08-24T22:53:00.819Z,5.47
2018-08-24T22:55:30.492Z,6.43
2018-08-24T22:58:00.029Z,5.20
2018-08-24T23:00:29.768Z,4.33
2018-08-24T23:02:59.193Z,8.13
2018-08-24T23:05:28.657Z,4.87
2018-08-24T23:07:59.562Z,4.43
2018-08-24T23:10:29.042Z,5.53
2018-08-24T23:12:58.365Z,5.10
2018-08-24T23:15:27.803Z,5.37
2018-08-24T23:17:57.347Z,5.17
2018-08-24T23:20:26.444Z,5.87
2018-08-24T23:22:55.159Z,4.17
2018-08-24T23:25:24.933Z,7.37
2018-08-24T23:27:56.843Z,6.80
2018-08-24T23:30:27.817Z,8.97
2018-08-24T23:32:57.441Z,7.73
2018-08-24T23:35:27.858Z,4.63
2018-08-24T23:37:57.437Z,6.87
2018-08-24T23:40:27.626Z,6.57
2018-08-24T23:42:58.075Z,7.27
2018-08-24T23:45:28.841Z,5.63
2018-08-24T23:47:58.168Z,8.33
2018-08-24T23:53:42.209Z,6.20
2018-08-24T23:56:11.055Z,6.80
2018-08-24T23:58:39.968Z,5.93
